Flight Track Log - Related Links

Times and Time Zones

All times are in EDT time to prevent confusion due to time zone crossing. See the SWA2502 flight status page for this flight to view local times or setup timezone preferences in your user account.

Time Position Orientation Groundspeed Altitude Reporting Facility
EDT Latitude Longitude Course Direction KTS MPH feet Rate Location/Type
Mon 04:21:30 PM 33.9428 -118.4836 267° West 195 224 2,400  Level Los Angeles Center
Mon 04:22:32 PM 33.9383 -118.5708 267° West 241 277 5,800 2,161 Climbing Los Angeles Center
Mon 04:24:00 PM 33.9817 -118.6904 328° Northwest  Level FlightAware Approximate
Mon 04:24:36 PM 34.0275 -118.7081 328° Northwest 287 330 9,100  Level Los Angeles Center
Mon 04:26:00 PM 34.1406 -118.6297 22° Northeast  Level FlightAware Approximate
Mon 04:26:41 PM 34.1825 -118.6725 22° Northeast 302 348 11,900  Level Los Angeles Center
Mon 04:27:43 PM 34.2678 -118.6858 353° North 307 353 15,000 2,613 Climbing Los Angeles Center
Mon 04:28:45 PM 34.3567 -118.6986 353° North 316 364 17,300 1,806 Climbing Los Angeles Center
Mon 04:30:49 PM 34.5669 -118.7408 351° North 396 456 20,600 1,710 Climbing Los Angeles Center
Mon 04:31:51 PM 34.6889 -118.8056 336° Northwest 402 463 22,600 1,883 Climbing Los Angeles Center
Mon 04:33:06 PM 34.8181 -118.8694 338° Northwest 416 479 24,900 1,752 Climbing Los Angeles Center
Mon 04:34:08 PM 34.9206 -118.9150 340° North 420 483 26,600 1,481 Climbing Los Angeles Center
Mon 04:35:48 PM 35.1228 -119.0042 340° North 430 495 28,900 1,355 Climbing Oakland Center
Mon 04:36:12 PM 35.1681 -119.0256 339° North 435 501 29,400 1,186 Climbing Los Angeles Center
Mon 04:37:14 PM 35.2847 -119.0767 340° North 446 513 30,600 1,161 Climbing Los Angeles Center
Mon 04:38:16 PM 35.4000 -119.1294 340° North 445 512 31,800 981 Climbing Los Angeles Center
Mon 04:39:53 PM 35.5792 -119.2106 340° North 438 504 33,200 873 Climbing Oakland Center
Mon 04:40:54 PM 35.6936 -119.2628 340° North 440 506 34,100 689 Climbing Oakland Center
Mon 04:41:55 PM 35.8094 -119.3153 340° North 445 512 34,600 639 Climbing Oakland Center
Mon 04:42:56 PM 35.9492 -119.3800 339° North 449 517 35,400 549 Climbing Oakland Center
Mon 04:44:28 PM 36.1028 -119.4717 334° Northwest 436 502 36,000 246 Climbing Los Angeles Center
Mon 04:44:58 PM 36.1633 -119.5106 333° Northwest 424 488 35,900  Descending Oakland Center
Mon 04:46:00 PM 36.2686 -119.5778 333° Northwest 426 490 36,000 49 Climbing Oakland Center
Mon 04:47:01 PM 36.3733 -119.6458 332° Northwest 427 491 36,000  Level Oakland Center
Mon 04:48:02 PM 36.4792 -119.7164 332° Northwest 433 498 36,000  Level Oakland Center
Mon 04:49:03 PM 36.5864 -119.7883 332° Northwest 438 504 36,000  Level Oakland Center
Mon 04:51:05 PM 36.8028 -119.9325 332° Northwest 442 509 36,000  Level Oakland Center
Mon 04:52:07 PM 36.9336 -120.0211 332° Northwest 447 514 36,000 -1,728 Level Oakland Center
Mon 04:54:09 PM 37.1411 -120.1614 332° Northwest 463 533 30,700 -2,400 Descending Oakland Center
Mon 04:56:00 PM 37.2996 -120.3072 324° Northwest  Level FlightAware Approximate
Mon 04:57:12 PM 37.4719 -120.3942 324° Northwest 407 468 23,800  Level Oakland Center
Mon 04:57:33 PM 37.5000 -120.4333 312° West 394 453 23,500 -927 Descending Northern Cal TRACON
Mon 04:59:15 PM 37.6436 -120.5681 323° Northwest 396 456 21,900 -920 Descending Oakland Center
Mon 05:00:16 PM 37.7322 -120.6567 322° Northwest 403 464 21,000 -934 Descending Oakland Center
Mon 05:01:17 PM 37.8225 -120.7481 321° Northwest 411 473 20,000 -492 Descending Oakland Center
Mon 05:02:18 PM 37.9125 -120.8389 321° Northwest 414 476 20,000 -913 Level Oakland Center
Mon 05:04:21 PM 38.0958 -121.0308 321° Northwest 426 490 17,200 -1,989 Descending Oakland Center
Mon 05:05:22 PM 38.1714 -121.1467 310° West 423 487 13,900 -2,656 Descending Oakland Center
Mon 05:06:23 PM 38.2458 -121.2569 311° West 410 472 11,800 -2,016 Descending Oakland Center
Mon 05:07:24 PM 38.3100 -121.3528 310° West 358 412 9,800 -2,000 Descending Oakland Center
Mon 05:09:26 PM 38.4461 -121.5078 318° Northwest 292 336 5,700 -1,826 Descending Oakland Center
Mon 05:10:28 PM 38.5081 -121.5656 324° Northwest 279 321 4,200 -1,513 Descending Oakland Center
Mon 05:11:21 PM 38.5500 -121.5833 342° North 225 259 2,800 -1,180 Descending Northern Cal TRACON
Mon 05:13:31 PM 38.6556 -121.5814 North 153 176 600 -1,015 Descending Oakland Center
Mon 05:15:00 PM 38.6833 -121.5833 46° Northeast  Level FlightAware Approximate
Mon 05:22:00 PM 38.6954 -121.5908 46° Northeast  Level Estimated
Mon 05:23:00 PM 38.6954 -121.5908 46° Northeast  Level Estimated
Mon 05:24:00 PM 38.6954 -121.5908 46° Northeast  Level Estimated

Login

Don't have an account? Register now (free) for customized features, flight alerts, and more!